Impacts METAR Board
IDs:

KPHL - Philadelphia Intl, PA, US

Updated at: 0100 UTC 25 May 2018
Potential Impact None Slight Moderate High
Time 24/13Z 24/14Z 24/15Z 24/16Z 24/17Z 24/18Z 24/19Z 24/20Z 24/21Z 24/22Z 24/23Z 25/00Z 25/01Z
Temp71 74 77 79 79 81 81 82 83 83 82 79 72
Dewpt52 51 40 42 43 44 42 42 42 43 46 48 48
Altim30.15 30.16 30.17 30.16 30.15 30.14 30.13 30.12 30.10 30.10 30.09 30.10 30.11
VIS10 10 10 10 10 10 10 10 10 10 10 10 10
CIG-- -- -- -- -- -- -- -- -- -- -- -- --
CoverCLRCLRCLRCLRFEWFEWFEWCLRCLRCLRCLRCLRCLR
FltCatVFRVFRVFRVFRVFRVFRVFRVFRVFRVFRVFRVFRVFR
WX--------------------------
WDir35010101036020180200210220220220200
WSpd15 10 10 12 7 5 5 7 8 7 8 9 9
WGst-- -- -- -- -- -- -- -- -- -- -- -- --
Raw hourly METARs
KPHL 241254Z 35015KT 10SM CLR 22/11 A3015 RMK AO2 SLP210 T02170111
KPHL 241354Z 01010KT 10SM CLR 23/11 A3016 RMK AO2 SLP213 T02330106
KPHL 241454Z 01010KT 10SM CLR 25/04 A3017 RMK AO2 SLP215 T02500044 51007
KPHL 241554Z 01012KT 10SM CLR 26/06 A3016 RMK AO2 SLP212 T02610056
KPHL 241654Z 36007KT 10SM FEW260 26/06 A3015 RMK AO2 SLP209 T02610061
KPHL 241754Z 02005KT 10SM FEW260 27/07 A3014 RMK AO2 SLP206 T02720067 10272 20206 57009
KPHL 241854Z 18005KT 10SM FEW260 27/06 A3013 RMK AO2 SLP203 T02720056 $
KPHL 241954Z 20007KT 10SM CLR 28/06 A3012 RMK AO2 SLP199 T02780056 $
KPHL 242054Z 21008KT 10SM CLR 28/06 A3010 RMK AO2 SLP193 T02830056 58013 $
KPHL 242154Z 22007KT 10SM CLR 28/06 A3010 RMK AO2 SLP191 T02830061 $
KPHL 242254Z 22008KT 10SM CLR 28/08 A3009 RMK AO2 SLP187 T02780078 $
KPHL 242354Z 22009KT 10SM CLR 26/09 A3010 RMK AO2 SLP191 T02610089 10289 20261 55002 $
KPHL 250054Z 20009KT 10SM CLR 22/09 A3011 RMK AO2 SLP196 T02220089 $



Page loaded:  01:32 UTC  |   06:32 PM Pacific  |   07:32 PM Mountain  |   08:32 PM Central  |   09:32 PM Eastern

 

ADVISORIES

FORECASTS

FORECASTS

OBSERVATIONS

USER TOOLS

ABOUT US